Current Weather

Joliet Rgnl

Joliet, Illinois (KJOT)

Report from: Wednesday, September 28, 2022 4:55 AM CDT
Current time: Wednesday, September 28, 2022 5:29 AM CDT

Nearby weather
Weather history
Weather forecast

Temperature6.7°C (44.1°F)
Wind chill5.3°C (41.5°F)
Dew point5.1°C (41.2°F)
Winds 4 kts (2.1 m/s, 4.6 mph) North-Northwest (340°)
Visibility10 mi. (16.1 km)
Clouds Ceiling: Broken clouds 6,000 ft. (1,829 m)
Altimeter30.36 in.Hg (1028 mB)
Relative humidity90 %
Density altitude-1,374 ft. (-419 m)
Remarks Fully automated report
Automated weather observing station with precipitation discriminator
Flight conditions Visual Meteorological Conditions
Raw dataKJOT 280955Z AUTO 34004KT 10SM BKN060 07/05 A3036 RMK AO2 T00670051
An error has occurred. This application may no longer respond until reloaded. Reload 🗙